Time;durP1;ratioP1;P1;durP2;ratioP2;P2;SDS_P1;SDS_P2;PMS_P1;PMS_P2;Temp;Humidity;BMP_temperature;BMP_pressure;BME280_temperature;BME280_humidity;BME280_pressure;Samples;Min_cycle;Max_cycle;Signal;HPM_P1;HPM_P2
2021/12/06 00:00:12;;;;;;;;;4.00;4.00;;;;;6.83;100.00;100767.47;5058476;28;45372;-61
2021/12/06 00:02:38;;;;;;;;;1.25;1.00;;;;;6.81;100.00;100769.22;5058958;28;45541;-62
2021/12/06 00:05:04;;;;;;;;;3.50;3.00;;;;;6.80;100.00;100764.91;5060019;28;46306;-61
2021/12/06 00:07:29;;;;;;;;;3.50;1.75;;;;;6.80;100.00;100772.66;5058327;28;45443;-61
2021/12/06 00:09:55;;;;;;;;;5.75;5.75;;;;;6.77;100.00;100771.84;5060910;28;45278;-61
2021/12/06 00:12:20;;;;;;;;;3.00;3.00;;;;;6.72;100.00;100784.81;5060207;28;45203;-61
2021/12/06 00:14:46;;;;;;;;;3.00;3.00;;;;;6.71;100.00;100789.13;5058896;28;45803;-61
2021/12/06 00:17:13;;;;;;;;;1.50;1.25;;;;;6.73;100.00;100791.69;5057924;28;46314;-61
2021/12/06 00:19:41;;;;;;;;;5.00;3.00;;;;;6.74;100.00;100795.13;5056756;28;45428;-61
2021/12/06 00:22:09;;;;;;;;;2.00;2.00;;;;;6.74;100.00;100797.72;5057402;28;45415;-61
2021/12/06 00:24:35;;;;;;;;;8.75;4.50;;;;;6.78;100.00;100781.31;5057826;28;46169;-61
2021/12/06 00:27:01;;;;;;;;;2.50;2.50;;;;;6.80;100.00;100784.72;5057636;28;46085;-62
2021/12/06 00:29:26;;;;;;;;;5.00;4.50;;;;;6.79;100.00;100776.13;5058456;28;45457;-62
2021/12/06 00:31:52;;;;;;;;;5.25;2.50;;;;;6.80;100.00;100783.00;5059927;28;45215;-61
2021/12/06 00:34:19;;;;;;;;;3.00;2.00;;;;;6.81;100.00;100783.84;5060035;28;46211;-60
2021/12/06 00:37:05;;;;;;;;;3.00;2.25;;;;;6.80;100.00;100787.31;5059890;28;45867;-60
2021/12/06 00:39:31;;;;;;;;;5.25;2.00;;;;;6.82;100.00;100801.09;5059915;28;45382;-60
2021/12/06 00:41:57;;;;;;;;;5.25;5.00;;;;;6.80;100.00;100797.63;5060075;28;45484;-60
2021/12/06 00:44:22;;;;;;;;;3.00;3.00;;;;;6.83;100.00;100816.56;5059728;28;46127;-59
2021/12/06 00:46:48;;;;;;;;;9.75;3.00;;;;;6.87;100.00;100818.22;5060056;28;45342;-60
2021/12/06 00:49:14;;;;;;;;;6.00;5.00;;;;;6.90;100.00;100814.75;5059967;28;45521;-60
2021/12/06 00:51:40;;;;;;;;;5.75;3.00;;;;;6.92;100.00;100821.63;5059995;28;45364;-60
2021/12/06 00:54:07;;;;;;;;;4.00;2.00;;;;;6.91;100.00;100819.91;5058368;28;47079;-60
2021/12/06 00:56:32;;;;;;;;;2.25;2.25;;;;;6.89;100.00;100823.38;5060081;28;45215;-60
2021/12/06 00:58:57;;;;;;;;;5.75;5.75;;;;;6.89;100.00;100828.53;5059734;28;45248;-60
2021/12/06 01:01:23;;;;;;;;;1.00;1.00;;;;;6.88;100.00;100832.84;5059917;28;45204;-60
2021/12/06 01:03:49;;;;;;;;;7.25;4.00;;;;;6.91;100.00;100831.97;5058448;28;45459;-60
2021/12/06 01:06:14;;;;;;;;;3.75;2.00;;;;;6.94;100.00;100827.63;5059940;28;45354;-60
2021/12/06 01:08:40;;;;;;;;;10.00;5.00;;;;;6.98;100.00;100834.44;5059453;28;45204;-60
2021/12/06 01:11:08;;;;;;;;;5.00;3.00;;;;;6.95;100.00;100839.66;5059918;28;45410;-60
2021/12/06 01:13:34;;;;;;;;;6.50;3.00;;;;;6.92;100.00;100839.69;5059463;28;46193;-61
2021/12/06 01:15:59;;;;;;;;;3.00;3.00;;;;;6.92;100.00;100842.28;5058317;28;45275;-61
2021/12/06 01:18:25;;;;;;;;;3.50;3.50;;;;;6.90;100.00;100854.38;5059608;28;45314;-60
2021/12/06 01:20:59;;;;;;;;;3.00;3.00;;;;;6.88;100.00;100847.50;5059607;28;45232;-61
2021/12/06 01:23:29;;;;;;;;;12.75;5.00;;;;;6.88;100.00;100850.09;5058795;28;47044;-60
2021/12/06 01:39:16;;;;;;;;;7.25;4.00;;;;;6.84;100.00;100869.06;5058579;28;45588;-61
2021/12/06 01:41:44;;;;;;;;;3.50;2.75;;;;;6.86;100.00;100868.19;5058348;28;45158;-60
2021/12/06 01:44:19;;;;;;;;;4.00;3.00;;;;;6.87;100.00;100875.06;5057930;28;46336;-60
2021/12/06 01:46:50;;;;;;;;;4.00;4.00;;;;;6.83;100.00;100877.69;5058945;28;45341;-60
2021/12/06 01:49:19;;;;;;;;;6.75;3.50;;;;;6.82;100.00;100882.00;5058355;28;45460;-60
2021/12/06 01:51:46;;;;;;;;;3.00;3.00;;;;;6.81;100.00;100885.47;5040892;28;45399;-60
2021/12/06 01:54:14;;;;;;;;;6.25;3.50;;;;;6.82;100.00;100887.19;5041457;28;46165;-60
2021/12/06 01:56:39;;;;;;;;;4.50;4.50;;;;;6.84;100.00;100890.59;5058714;28;45244;-60
2021/12/06 01:59:06;;;;;;;;;7.00;5.00;;;;;6.87;100.00;100892.28;5058093;28;45327;-60
2021/12/06 02:01:32;;;;;;;;;7.00;4.75;;;;;6.88;100.00;100896.59;5057750;28;45466;-60
2021/12/06 02:03:58;;;;;;;;;5.25;5.25;;;;;6.86;100.00;100901.78;5050733;28;46181;-62
2021/12/06 02:06:23;;;;;;;;;6.75;3.50;;;;;6.85;100.00;100899.19;5058672;28;45769;-60
2021/12/06 02:08:49;;;;;;;;;9.25;6.50;;;;;6.89;100.00;100906.91;5057661;28;45331;-60
2021/12/06 02:11:14;;;;;;;;;11.00;5.50;;;;;6.90;100.00;100915.50;5058598;28;45265;-60
2021/12/06 02:13:57;;;;;;;;;9.75;6.00;;;;;6.92;100.00;100908.59;5057757;28;45339;-62
2021/12/06 02:16:31;;;;;;;;;6.50;5.00;;;;;6.95;100.00;100914.59;5060554;28;45241;-62
2021/12/06 02:19:02;;;;;;;;;6.50;4.50;;;;;6.99;100.00;100921.44;5061271;28;45351;-61
2021/12/06 02:21:33;;;;;;;;;5.75;5.00;;;;;7.04;100.00;100920.56;5058986;28;46039;-61
2021/12/06 02:24:04;;;;;;;;;3.75;2.75;;;;;7.07;100.00;100921.38;5028851;28;46307;-61
2021/12/06 02:26:29;;;;;;;;;3.50;3.00;;;;;7.08;100.00;100922.22;5055434;28;45405;-60
2021/12/06 02:28:55;;;;;;;;;6.00;3.50;;;;;7.10;100.00;100917.88;5061944;28;45403;-61
2021/12/06 02:31:25;;;;;;;;;8.50;5.00;;;;;7.08;100.00;100927.41;5061128;28;45323;-61
2021/12/06 02:33:51;;;;;;;;;2.50;2.50;;;;;7.09;100.00;100929.97;5061912;28;45549;-61
2021/12/06 02:36:18;;;;;;;;;2.50;1.00;;;;;7.13;100.00;100926.47;5060869;28;45347;-61
2021/12/06 02:38:45;;;;;;;;;5.50;4.50;;;;;7.15;100.00;100926.44;5061206;28;45325;-60
2021/12/06 02:41:11;;;;;;;;;3.50;2.50;;;;;7.17;100.00;100929.88;5060742;28;45601;-60
2021/12/06 02:43:37;;;;;;;;;5.50;4.50;;;;;7.19;100.00;100928.97;5061421;28;46412;-60
2021/12/06 02:46:04;;;;;;;;;5.25;5.00;;;;;7.22;100.00;100933.28;5060635;28;45919;-60
2021/12/06 02:48:30;;;;;;;;;7.50;5.75;;;;;7.19;100.00;100931.56;5061638;28;45219;-60
2021/12/06 02:50:57;;;;;;;;;1.50;1.00;;;;;7.19;100.00;100928.13;5060690;28;45357;-60
2021/12/06 02:53:25;;;;;;;;;5.75;5.75;;;;;7.11;100.00;100922.19;5050243;28;46537;-60
2021/12/06 02:55:54;;;;;;;;;9.50;6.50;;;;;7.11;100.00;100920.47;5055593;28;45268;-59
2021/12/06 03:01:15;;;;;;;;;3.00;3.00;;;;;7.17;100.00;100927.28;5060547;28;45386;-60
2021/12/06 03:03:41;;;;;;;;;4.50;3.50;;;;;7.18;100.00;100929.84;5053222;28;45487;-60
2021/12/06 03:06:09;;;;;;;;;6.00;5.00;;;;;7.19;100.00;100931.56;5059552;28;45275;-59
2021/12/06 03:08:48;;;;;;;;;6.25;5.00;;;;;7.24;100.00;100944.47;5060926;28;45284;-60
2021/12/06 03:11:31;;;;;;;;;9.75;6.00;;;;;7.28;100.00;100947.00;5037072;28;45254;-60
2021/12/06 03:13:57;;;;;;;;;7.00;4.50;;;;;7.25;100.00;100947.03;5060190;28;46868;-60
2021/12/06 03:16:23;;;;;;;;;3.50;3.50;;;;;7.24;100.00;100953.06;5061204;28;45401;-60
2021/12/06 03:18:50;;;;;;;;;3.50;3.00;;;;;7.24;100.00;100954.81;5060386;28;45318;-61
2021/12/06 03:21:17;;;;;;;;;6.75;6.00;;;;;7.26;100.00;100958.22;5059749;28;45379;-61
2021/12/06 03:23:42;;;;;;;;;8.00;4.00;;;;;7.23;100.00;100958.25;5049531;28;45539;-60
2021/12/06 03:26:08;;;;;;;;;5.50;5.50;;;;;7.30;100.00;100965.91;5040271;28;45308;-60
2021/12/06 03:28:39;;;;;;;;;8.50;6.00;;;;;7.32;100.00;100968.50;5040889;28;45351;-60
2021/12/06 03:31:06;;;;;;;;;11.25;6.25;;;;;7.35;100.00;100973.63;5041133;28;45423;-60
2021/12/06 03:33:35;;;;;;;;;9.00;6.00;;;;;7.33;100.00;100980.53;5040542;28;46025;-60
2021/12/06 03:36:01;;;;;;;;;6.75;5.75;;;;;7.30;100.00;100970.25;5041003;28;45806;-60
2021/12/06 03:38:26;;;;;;;;;7.75;7.00;;;;;7.30;100.00;100954.72;5044706;28;45330;-60
2021/12/06 03:40:52;;;;;;;;;6.50;5.00;;;;;7.33;100.00;100958.13;5060874;28;45494;-60
2021/12/06 03:43:17;;;;;;;;;10.25;7.50;;;;;7.36;100.00;100966.72;5060858;28;45257;-60
2021/12/06 03:45:42;;;;;;;;;6.00;6.00;;;;;7.39;100.00;100959.78;5060838;28;45426;-60
2021/12/06 03:48:08;;;;;;;;;10.25;6.75;;;;;7.43;100.00;100958.03;5061051;28;45259;-62
2021/12/06 03:50:33;;;;;;;;;12.25;6.00;;;;;7.43;100.00;100968.38;5060762;28;45270;-60
2021/12/06 03:52:59;;;;;;;;;11.00;7.00;;;;;7.43;100.00;100970.97;5060255;28;45552;-62
2021/12/06 03:55:24;;;;;;;;;8.75;6.75;;;;;7.36;100.00;100975.34;5060845;28;45294;-62
2021/12/06 03:57:50;;;;;;;;;6.50;6.00;;;;;7.31;100.00;100974.53;5059182;28;45461;-62
2021/12/06 04:00:15;;;;;;;;;8.00;6.00;;;;;7.35;100.00;100972.75;5058109;28;45866;-62
2021/12/06 04:02:43;;;;;;;;;4.00;4.00;;;;;7.34;100.00;100977.06;5057894;28;45444;-61
2021/12/06 04:05:09;;;;;;;;;13.25;9.75;;;;;7.32;100.00;100984.00;5057812;28;45916;-63
2021/12/06 04:07:34;;;;;;;;;7.75;6.50;;;;;7.35;100.00;100986.56;5056338;28;45441;-63
2021/12/06 04:10:00;;;;;;;;;6.00;6.00;;;;;7.39;100.00;100995.97;5058012;28;45688;-62
2021/12/06 04:12:25;;;;;;;;;5.00;5.00;;;;;7.40;100.00;101007.19;5057729;28;45980;-62
2021/12/06 04:14:51;;;;;;;;;11.50;7.50;;;;;7.42;100.00;101008.03;5058755;28;45803;-62
2021/12/06 04:17:17;;;;;;;;;11.50;7.00;;;;;7.42;100.00;101014.06;5058313;28;45290;-62
2021/12/06 04:19:43;;;;;;;;;9.75;6.00;;;;;7.44;100.00;101025.25;5056236;28;45925;-62
2021/12/06 04:22:11;;;;;;;;;9.25;6.00;;;;;7.46;100.00;101023.50;5058843;28;45568;-62
2021/12/06 04:24:37;;;;;;;;;6.50;5.25;;;;;7.50;100.00;101019.16;5058977;28;45872;-62
2021/12/06 04:27:13;;;;;;;;;10.00;6.50;;;;;7.48;100.00;101026.94;5060148;28;45326;-62
2021/12/06 04:29:39;;;;;;;;;10.50;8.00;;;;;7.48;100.00;101024.34;5059908;28;45403;-61
2021/12/06 04:32:05;;;;;;;;;7.25;6.25;;;;;7.47;100.00;101027.81;5059599;28;46190;-61
2021/12/06 04:34:30;;;;;;;;;6.25;6.00;;;;;7.50;100.00;101032.94;5060144;28;45290;-60
2021/12/06 04:36:55;;;;;;;;;6.00;6.00;;;;;7.45;100.00;101026.09;5059929;28;45253;-61
2021/12/06 04:39:21;;;;;;;;;7.00;6.00;;;;;7.45;100.00;101026.97;5058884;28;45470;-60
2021/12/06 04:41:47;;;;;;;;;11.00;7.00;;;;;7.48;100.00;101029.50;5059646;28;46511;-61
2021/12/06 04:44:13;;;;;;;;;9.75;9.75;;;;;7.47;100.00;101045.91;5059963;28;45227;-61
2021/12/06 04:46:39;;;;;;;;;7.00;5.50;;;;;7.44;100.00;101048.53;5059798;28;45351;-61
2021/12/06 04:49:06;;;;;;;;;7.25;6.25;;;;;7.44;100.00;101060.59;5059897;28;45502;-61
2021/12/06 04:51:33;;;;;;;;;7.50;6.75;;;;;7.41;100.00;101061.50;5058324;28;46254;-60
2021/12/06 04:53:58;;;;;;;;;9.00;6.00;;;;;7.39;100.00;101064.94;5059579;28;45464;-60
2021/12/06 04:56:27;;;;;;;;;11.75;8.50;;;;;7.38;100.00;101056.31;5059651;28;45501;-60
2021/12/06 04:59:21;;;;;;;;;11.50;9.00;;;;;7.38;100.00;101056.31;5059547;28;45505;-60
2021/12/06 05:01:48;;;;;;;;;6.75;6.00;;;;;7.38;100.00;101064.06;5050491;28;46402;-61
2021/12/06 05:04:21;;;;;;;;;6.75;6.75;;;;;7.40;100.00;101066.66;5057251;28;45812;-61
2021/12/06 05:06:51;;;;;;;;;9.50;6.00;;;;;7.43;100.00;101064.91;5053931;28;45300;-60
2021/12/06 05:09:26;;;;;;;;;8.00;7.25;;;;;7.46;100.00;101070.06;5052876;28;45394;-60
2021/12/06 05:11:52;;;;;;;;;10.75;8.25;;;;;7.45;100.00;101080.41;5056435;28;46437;-61
2021/12/06 05:14:17;;;;;;;;;18.50;14.50;;;;;7.48;100.00;101078.66;5058805;28;45337;-61
2021/12/06 05:16:43;;;;;;;;;11.00;10.00;;;;;7.46;100.00;101082.97;5059354;28;45291;-62
2021/12/06 05:19:08;;;;;;;;;12.25;10.00;;;;;7.48;100.00;101089.00;5058110;28;45362;-62
2021/12/06 05:21:35;;;;;;;;;11.75;11.50;;;;;7.42;100.00;101078.72;5056189;28;45889;-61
2021/12/06 05:24:00;;;;;;;;;14.50;8.50;;;;;7.42;100.00;101081.31;5055878;28;45508;-62
2021/12/06 05:26:26;;;;;;;;;11.50;6.75;;;;;7.38;100.00;101082.16;5057220;28;45602;-62
2021/12/06 05:28:56;;;;;;;;;11.25;9.75;;;;;7.39;100.00;101083.88;5056870;28;45375;-61
2021/12/06 05:31:23;;;;;;;;;9.50;9.50;;;;;7.41;100.00;101091.63;5056471;28;47003;-61
2021/12/06 05:33:59;;;;;;;;;12.75;7.50;;;;;7.40;100.00;101106.28;5057265;28;45870;-64
2021/12/06 05:36:24;;;;;;;;;7.00;7.00;;;;;7.38;100.00;101108.03;5059325;28;45353;-63
2021/12/06 05:38:52;;;;;;;;;12.50;9.50;;;;;7.38;100.00;101112.34;5058910;28;45278;-63
2021/12/06 05:41:17;;;;;;;;;10.25;8.25;;;;;7.37;100.00;101116.66;5058832;28;46085;-63
2021/12/06 05:43:43;;;;;;;;;8.00;7.50;;;;;7.37;100.00;101106.31;5059540;28;45602;-62
2021/12/06 05:46:08;;;;;;;;;13.50;9.50;;;;;7.37;100.00;101110.63;5058988;28;45476;-62
2021/12/06 05:48:34;;;;;;;;;11.75;9.00;;;;;7.38;100.00;101110.63;5059389;28;45476;-61
2021/12/06 05:50:59;;;;;;;;;13.75;9.75;;;;;7.41;100.00;101113.19;5061632;28;45398;-61
2021/12/06 05:53:26;;;;;;;;;14.25;8.25;;;;;7.40;100.00;101119.22;5062174;28;45216;-61
2021/12/06 05:55:52;;;;;;;;;6.00;5.00;;;;;7.37;100.00;101121.81;5062144;28;45365;-62
2021/12/06 05:58:20;;;;;;;;;11.75;9.50;;;;;7.38;100.00;101123.53;5061811;28;45365;-62
2021/12/06 06:00:48;;;;;;;;;12.00;6.50;;;;;7.39;100.00;101117.50;5060383;28;46165;-62
2021/12/06 06:03:15;;;;;;;;;14.00;11.00;;;;;7.43;100.00;101120.94;5061837;28;45331;-61
2021/12/06 06:05:41;;;;;;;;;8.25;8.00;;;;;7.48;100.00;101122.59;5061986;28;45331;-61
2021/12/06 06:08:07;;;;;;;;;10.00;6.75;;;;;7.50;100.00;101128.63;5061813;28;45322;-62
2021/12/06 06:10:33;;;;;;;;;16.25;11.25;;;;;7.53;100.00;101130.31;5061758;28;47072;-62
2021/12/06 06:13:00;;;;;;;;;17.75;10.50;;;;;7.54;100.00;101132.03;5061913;28;45784;-62
2021/12/06 06:15:26;;;;;;;;;10.25;7.50;;;;;7.56;100.00;101123.38;5049937;28;45307;-62
2021/12/06 06:17:51;;;;;;;;;10.25;9.25;;;;;7.54;100.00;101130.31;5061994;28;45171;-61
2021/12/06 06:20:32;;;;;;;;;13.75;9.75;;;;;7.51;100.00;101135.50;5061928;28;46256;-61
2021/12/06 06:22:57;;;;;;;;;15.00;11.00;;;;;7.48;100.00;101138.13;5061452;28;45299;-61
2021/12/06 06:25:23;;;;;;;;;16.00;8.25;;;;;7.43;100.00;101145.06;5060929;28;46393;-61
2021/12/06 06:27:48;;;;;;;;;10.50;9.50;;;;;7.44;100.00;101148.50;5061916;28;45228;-60
2021/12/06 06:30:14;;;;;;;;;17.00;11.00;;;;;7.47;100.00;101153.66;5061601;28;45326;-60
2021/12/06 06:32:41;;;;;;;;;10.00;7.50;;;;;7.47;100.00;101146.75;5061123;28;45314;-62
2021/12/06 06:35:07;;;;;;;;;17.00;11.00;;;;;7.48;100.00;101156.22;5061034;28;45435;-60
2021/12/06 06:37:33;;;;;;;;;14.50;10.75;;;;;7.49;100.00;101155.34;5061021;28;45284;-60
2021/12/06 06:39:59;;;;;;;;;14.25;12.00;;;;;7.52;100.00;101157.91;5061059;28;46106;-61
2021/12/06 06:42:27;;;;;;;;;10.25;8.25;;;;;7.51;100.00;101151.03;5061226;28;45781;-61
2021/12/06 06:44:54;;;;;;;;;7.25;6.00;;;;;7.51;100.00;101151.03;5060811;28;45315;-63
2021/12/06 06:47:20;;;;;;;;;10.25;7.25;;;;;7.47;100.00;101149.34;5061217;28;46084;-63
2021/12/06 06:49:46;;;;;;;;;11.00;8.75;;;;;7.45;100.00;101152.81;5059574;28;46656;-61
2021/12/06 06:52:12;;;;;;;;;11.25;9.75;;;;;7.39;100.00;101156.28;5060906;28;45254;-65
2021/12/06 06:54:38;;;;;;;;;10.00;8.25;;;;;7.31;100.00;101145.16;5061245;28;45264;-62
2021/12/06 06:57:04;;;;;;;;;14.00;12.00;;;;;7.34;100.00;101158.06;5061341;28;45438;-62
2021/12/06 06:59:29;;;;;;;;;11.00;10.00;;;;;7.38;100.00;101171.81;5059784;28;47354;-61
2021/12/06 07:01:55;;;;;;;;;14.75;11.25;;;;;7.37;100.00;101183.03;5058363;28;45271;-60
2021/12/06 07:04:21;;;;;;;;;14.50;10.00;;;;;7.40;100.00;101181.25;5061019;28;45402;-61
2021/12/06 07:06:47;;;;;;;;;14.00;12.00;;;;;7.34;100.00;101173.56;5060817;28;45509;-61
2021/12/06 07:09:13;;;;;;;;;15.00;12.00;;;;;7.38;100.00;101185.59;5060584;28;47127;-61
2021/12/06 07:11:38;;;;;;;;;12.25;10.50;;;;;7.42;100.00;101184.72;5060970;28;45317;-62
2021/12/06 07:14:03;;;;;;;;;14.00;10.50;;;;;7.41;100.00;101193.34;5060569;28;45314;-64
2021/12/06 07:16:29;;;;;;;;;10.25;8.50;;;;;7.39;100.00;101195.06;5060760;28;45548;-64
2021/12/06 07:18:56;;;;;;;;;15.00;11.00;;;;;7.29;100.00;101186.53;5060159;28;45997;-63
2021/12/06 07:21:23;;;;;;;;;10.00;9.50;;;;;7.28;100.00;101197.75;5056737;28;46004;-63
2021/12/06 07:23:49;;;;;;;;;16.75;9.50;;;;;7.34;100.00;101202.00;5059360;28;45150;-64
2021/12/06 07:26:16;;;;;;;;;15.00;10.50;;;;;7.38;100.00;101200.25;5060182;28;45544;-62
2021/12/06 07:28:44;;;;;;;;;12.50;10.00;;;;;7.42;100.00;101197.66;5059755;28;46278;-65
2021/12/06 07:31:12;;;;;;;;;13.25;11.75;;;;;7.44;100.00;101210.56;5060623;28;45408;-64
2021/12/06 07:33:39;;;;;;;;;10.50;8.75;;;;;7.43;100.00;101214.88;5059997;28;45217;-64
2021/12/06 07:36:05;;;;;;;;;11.75;10.00;;;;;7.46;100.00;101214.00;5060584;28;45223;-63
2021/12/06 07:38:31;;;;;;;;;15.00;12.75;;;;;7.47;100.00;101203.66;5059473;28;45615;-63
2021/12/06 07:40:57;;;;;;;;;12.00;11.00;;;;;7.50;100.00;101205.34;5060408;28;45361;-63
2021/12/06 07:43:23;;;;;;;;;13.00;10.50;;;;;7.46;100.00;101198.50;5060446;28;45314;-62
2021/12/06 07:45:48;;;;;;;;;14.00;13.00;;;;;7.41;100.00;101206.28;5060077;28;45514;-64
2021/12/06 07:48:15;;;;;;;;;14.25;10.75;;;;;7.41;100.00;101211.47;5060152;28;45469;-65
2021/12/06 07:50:41;;;;;;;;;17.75;13.25;;;;;7.43;100.00;101206.28;5060503;28;45259;-64
2021/12/06 07:53:07;;;;;;;;;12.25;11.00;;;;;7.47;100.00;101202.78;5060115;28;45267;-64
2021/12/06 07:55:34;;;;;;;;;17.00;12.00;;;;;7.47;100.00;101205.38;5060003;28;45563;-70
2021/12/06 07:58:04;;;;;;;;;17.25;14.75;;;;;7.42;100.00;101205.41;5060988;27;46970;-63
2021/12/06 08:00:31;;;;;;;;;14.25;12.25;;;;;7.44;100.00;101215.75;5060012;28;45354;-64
2021/12/06 08:02:57;;;;;;;;;14.00;12.00;;;;;7.42;100.00;101202.81;5059822;28;45332;-63
2021/12/06 08:05:29;;;;;;;;;16.25;14.00;;;;;7.46;100.00;101204.50;5059988;28;45358;-64
2021/12/06 08:07:55;;;;;;;;;15.50;14.75;;;;;7.45;100.00;101207.97;5059559;28;46317;-64
2021/12/06 08:10:21;;;;;;;;;19.75;14.00;;;;;7.49;100.00;101207.06;5059998;28;45211;-63
2021/12/06 08:12:46;;;;;;;;;15.00;14.00;;;;;7.53;100.00;101206.19;5059656;28;45307;-64
2021/12/06 08:15:12;;;;;;;;;16.50;16.50;;;;;7.55;100.00;101199.25;5056920;28;45232;-66
2021/12/06 08:17:38;;;;;;;;;19.25;14.75;;;;;7.60;100.00;101202.66;5059916;28;46419;-65
2021/12/06 08:20:07;;;;;;;;;11.00;11.00;;;;;7.61;100.00;101216.47;5059448;28;45199;-64
2021/12/06 08:22:33;;;;;;;;;16.50;11.75;;;;;7.65;100.00;101214.72;5055475;28;45415;-65
2021/12/06 08:24:58;;;;;;;;;15.50;15.00;;;;;7.74;100.00;101206.88;5058505;28;45247;-65
2021/12/06 08:27:23;;;;;;;;;16.50;16.50;;;;;7.78;100.00;101193.91;5057077;28;45295;-63
2021/12/06 08:29:49;;;;;;;;;25.25;18.75;;;;;7.85;100.00;101197.31;5058867;28;45314;-64
2021/12/06 08:32:14;;;;;;;;;17.50;16.25;;;;;7.89;100.00;101176.56;5059589;28;45468;-63
2021/12/06 08:34:41;;;;;;;;;15.75;14.00;;;;;7.99;100.00;101176.44;5059746;28;45333;-65
2021/12/06 08:37:08;;;;;;;;;15.25;11.50;;;;;8.11;100.00;101190.13;5059367;28;46103;-64
2021/12/06 08:39:34;;;;;;;;;13.75;11.00;;;;;8.19;100.00;101203.84;5059859;28;45814;-64
2021/12/06 08:42:01;;;;;;;;;15.25;11.75;;;;;8.23;100.00;101191.75;5058559;28;45403;-65
2021/12/06 08:44:27;;;;;;;;;16.75;15.00;;;;;8.28;100.00;101191.69;5058816;28;45538;-65
2021/12/06 08:46:52;;;;;;;;;14.75;12.75;;;;;8.40;100.00;101184.66;5058010;28;46106;-63
2021/12/06 08:49:18;;;;;;;;;24.75;18.75;;;;;8.39;100.00;101184.69;5058172;28;45335;-64
2021/12/06 08:51:47;;;;;;;;;14.50;10.00;;;;;8.42;100.00;101195.03;5059744;28;45378;-61
2021/12/06 08:54:20;;;;;;;;;25.50;21.50;;;;;8.51;100.00;101180.22;5059248;28;46017;-61
2021/12/06 08:56:47;;;;;;;;;28.50;19.25;;;;;8.53;100.00;101168.13;5059648;28;45977;-61
2021/12/06 08:59:13;;;;;;;;;15.25;14.25;;;;;8.52;100.00;101171.59;5059025;28;45516;-60
2021/12/06 09:01:40;;;;;;;;;24.00;19.25;;;;;8.43;100.00;101174.31;5059451;28;45232;-61
2021/12/06 09:04:09;;;;;;;;;19.75;15.75;;;;;8.41;100.00;101167.41;5057857;28;45638;-60
2021/12/06 09:06:35;;;;;;;;;24.00;19.75;;;;;8.37;100.00;101168.31;5059266;28;47432;-60
2021/12/06 09:09:05;;;;;;;;;25.25;16.75;;;;;8.37;100.00;101170.91;5059003;28;45686;-60
2021/12/06 09:11:30;;;;;;;;;26.25;21.75;;;;;8.38;100.00;101176.06;5059143;28;45339;-60
2021/12/06 09:13:56;;;;;;;;;17.75;15.75;;;;;8.39;100.00;101182.09;5053222;28;45686;-60
2021/12/06 09:16:21;;;;;;;;;19.50;17.00;;;;;8.37;100.00;101182.13;5050009;28;45341;-61
2021/12/06 09:18:47;;;;;;;;;25.75;19.75;;;;;8.40;100.00;101196.75;5058900;28;45313;-60
2021/12/06 09:21:18;;;;;;;;;27.00;22.75;;;;;8.45;100.00;101195.00;5055767;28;45394;-68
2021/12/06 09:23:45;;;;;;;;;23.75;22.25;;;;;8.47;100.00;101186.34;5056684;28;45457;-64
2021/12/06 09:26:10;;;;;;;;;25.50;19.50;;;;;8.53;100.00;101203.53;5062301;28;46578;-65
2021/12/06 09:28:36;;;;;;;;;22.50;20.00;;;;;8.55;100.00;101204.38;5062376;28;45432;-63
2021/12/06 09:31:04;;;;;;;;;25.25;21.00;;;;;8.58;100.00;101180.16;5062815;28;45334;-62
2021/12/06 09:33:32;;;;;;;;;22.00;18.00;;;;;8.61;100.00;101170.63;5062258;28;45449;-61
2021/12/06 09:35:59;;;;;;;;;20.75;17.25;;;;;8.73;100.00;101186.00;5062492;28;46275;-60
2021/12/06 09:38:32;;;;;;;;;26.75;20.25;;;;;8.77;100.00;101187.69;5061111;28;45811;-60
2021/12/06 09:40:58;;;;;;;;;27.00;18.25;;;;;8.82;100.00;101192.81;5061992;28;45279;-60
2021/12/06 09:43:24;;;;;;;;;22.50;21.25;;;;;8.85;100.00;101187.59;5061177;28;45434;-60
2021/12/06 09:45:49;;;;;;;;;24.00;16.75;;;;;8.84;100.00;101188.47;5061798;28;46632;-60
2021/12/06 09:48:16;;;;;;;;;16.75;16.25;;;;;8.78;100.00;101184.22;5061358;28;45245;-59
2021/12/06 09:50:49;;;;;;;;;21.75;19.25;;;;;8.77;100.00;101186.81;5061963;28;45375;-60
2021/12/06 09:53:19;;;;;;;;;15.75;12.50;;;;;8.83;100.00;101187.63;5060799;28;45537;-60
2021/12/06 09:55:47;;;;;;;;;21.25;12.25;;;;;8.85;100.00;101185.00;5061315;28;46289;-60
2021/12/06 09:58:12;;;;;;;;;14.00;13.50;;;;;8.87;100.00;101184.97;5061909;28;45363;-60
2021/12/06 10:00:43;;;;;;;;;13.50;12.00;;;;;8.82;100.00;101172.09;5061086;28;45556;-58
2021/12/06 10:03:10;;;;;;;;;16.75;15.25;;;;;8.74;100.00;101176.50;5055645;28;45339;-60
2021/12/06 10:05:36;;;;;;;;;15.75;12.00;;;;;8.69;100.00;101179.16;5061022;28;47070;-60
2021/12/06 10:08:03;;;;;;;;;10.25;9.75;;;;;8.74;100.00;101177.34;5061486;28;45790;-61
2021/12/06 10:10:30;;;;;;;;;11.25;11.00;;;;;8.92;99.54;101185.78;5061184;28;45304;-59
2021/12/06 10:12:56;;;;;;;;;15.75;13.00;;;;;9.11;100.00;101182.03;5053299;28;45152;-58
2021/12/06 10:15:25;;;;;;;;;21.75;13.75;;;;;9.32;100.00;101171.34;5038185;28;46003;-60
2021/12/06 10:17:53;;;;;;;;;19.25;13.00;;;;;9.53;100.00;101156.31;5017824;28;45730;-59
2021/12/06 10:20:19;;;;;;;;;15.75;10.50;;;;;9.68;100.00;101149.16;5041985;28;45186;-59
2021/12/06 10:22:44;;;;;;;;;23.50;16.00;;;;;9.82;100.00;101140.28;5041339;28;45364;-60
2021/12/06 10:25:10;;;;;;;;;14.50;10.25;;;;;9.88;100.00;101142.75;5041394;28;45174;-58
2021/12/06 10:27:35;;;;;;;;;21.25;12.75;;;;;9.92;100.00;101141.81;5041905;28;45176;-61
2021/12/06 10:30:09;;;;;;;;;18.00;13.50;;;;;9.88;100.00;101138.41;5043552;28;46000;-58
2021/12/06 10:32:39;;;;;;;;;15.75;11.00;;;;;9.89;100.00;101137.53;5035927;28;45150;-58
2021/12/06 10:35:14;;;;;;;;;15.75;9.00;;;;;9.83;99.67;101126.41;5041184;28;46210;-59
2021/12/06 10:37:45;;;;;;;;;14.00;12.00;;;;;9.76;99.21;101115.25;5042787;28;45359;-58
2021/12/06 10:40:15;;;;;;;;;12.25;12.25;;;;;9.72;99.07;101104.09;5053249;28;45777;-58
2021/12/06 10:42:44;;;;;;;;;12.75;12.75;;;;;9.68;99.22;101110.22;5052157;28;45475;-59
2021/12/06 10:45:10;;;;;;;;;17.00;12.00;;;;;9.69;99.73;101104.16;5059603;28;46866;-59
2021/12/06 10:47:36;;;;;;;;;18.25;15.50;;;;;9.79;100.00;101102.22;5060269;28;45146;-62
2021/12/06 10:50:14;;;;;;;;;13.50;12.75;;;;;9.82;98.96;101102.19;5042239;28;45394;-59
2021/12/06 10:52:55;;;;;;;;;15.50;12.25;;;;;9.80;98.92;101096.16;5059277;28;45296;-60
2021/12/06 10:55:26;;;;;;;;;17.75;13.25;;;;;9.91;99.59;101091.63;5060797;28;47026;-60
2021/12/06 10:57:54;;;;;;;;;13.75;11.50;;;;;10.08;98.88;101093.91;5059608;28;45473;-60
2021/12/06 11:00:49;;;;;;;;;12.25;12.25;;;;;10.14;99.12;101082.53;5060442;28;45244;-61
2021/12/06 11:03:26;;;;;;;;;14.00;11.00;;;;;10.17;99.36;101085.91;5044700;28;45230;-64
2021/12/06 11:06:02;;;;;;;;;9.75;9.25;;;;;10.12;98.02;101082.56;5059158;28;45394;-64
2021/12/06 11:08:29;;;;;;;;;11.00;10.25;;;;;10.10;98.28;101083.47;5059568;28;45873;-65
2021/12/06 11:11:02;;;;;;;;;16.00;10.25;;;;;10.14;98.21;101080.78;5059182;28;45486;-64
2021/12/06 11:13:37;;;;;;;;;13.00;11.25;;;;;10.24;97.78;101071.09;5059167;28;45472;-63
2021/12/06 11:16:21;;;;;;;;;17.75;14.75;;;;;10.27;96.64;101071.91;5037226;28;45342;-62
2021/12/06 11:19:04;;;;;;;;;13.00;12.50;;;;;10.28;97.24;101063.22;5058977;28;45297;-66
2021/12/06 11:21:43;;;;;;;;;16.00;12.00;;;;;10.27;96.86;101071.03;5053112;28;45260;-66
2021/12/06 11:24:20;;;;;;;;;10.00;9.00;;;;;10.10;94.55;101075.69;5041602;28;45500;-64
2021/12/06 11:26:56;;;;;;;;;13.25;9.00;;;;;9.94;96.09;101075.97;5053809;28;46130;-63
2021/12/06 11:29:41;;;;;;;;;13.75;10.75;;;;;9.99;95.59;101087.13;5059897;28;45228;-62
2021/12/06 11:32:20;;;;;;;;;13.75;12.75;;;;;10.08;97.00;101083.50;5057482;28;45621;-63
2021/12/06 11:34:49;;;;;;;;;15.25;12.50;;;;;10.18;97.78;101072.03;5059102;28;45383;-61